sensor_id;sensor_type;location;lat;lon;timestamp;pressure;altitude;pressure_sealevel;temperature;humidity
38466;BME280;24244;51.950;5.902;2023-03-26T00:02:05;100610.09;;;9.44;81.99
38466;BME280;24244;51.950;5.902;2023-03-26T00:04:35;100614.38;;;9.45;82.09
38466;BME280;24244;51.950;5.902;2023-03-26T00:07:08;100622.97;;;9.47;82.17
38466;BME280;24244;51.950;5.902;2023-03-26T00:09:36;100617.66;;;9.47;82.01
38466;BME280;24244;51.950;5.902;2023-03-26T00:12:05;100620.31;;;9.47;81.99
38466;BME280;24244;51.950;5.902;2023-03-26T00:14:37;100616.66;;;9.48;82.17
38466;BME280;24244;51.950;5.902;2023-03-26T00:17:10;100608.34;;;9.51;82.18
38466;BME280;24244;51.950;5.902;2023-03-26T00:19:45;100614.50;;;9.52;81.89
38466;BME280;24244;51.950;5.902;2023-03-26T00:22:14;100610.81;;;9.53;82.27
38466;BME280;24244;51.950;5.902;2023-03-26T00:24:55;100607.16;;;9.54;82.18
38466;BME280;24244;51.950;5.902;2023-03-26T00:27:30;100602.66;;;9.54;81.98
38466;BME280;24244;51.950;5.902;2023-03-26T00:30:07;100597.19;;;9.56;82.34
38466;BME280;24244;51.950;5.902;2023-03-26T00:32:37;100599.84;;;9.56;82.04
38466;BME280;24244;51.950;5.902;2023-03-26T00:35:06;100590.03;;;9.56;82.19
38466;BME280;24244;51.950;5.902;2023-03-26T00:37:38;100590.88;;;9.57;82.22
38466;BME280;24244;51.950;5.902;2023-03-26T00:40:09;100588.03;;;9.58;82.25
38466;BME280;24244;51.950;5.902;2023-03-26T00:42:37;100580.91;;;9.59;82.11
38466;BME280;24244;51.950;5.902;2023-03-26T00:45:04;100581.91;;;9.58;82.34
38466;BME280;24244;51.950;5.902;2023-03-26T00:47:33;100583.72;;;9.57;82.31
38466;BME280;24244;51.950;5.902;2023-03-26T00:50:01;100577.59;;;9.57;82.45
38466;BME280;24244;51.950;5.902;2023-03-26T00:52:29;100572.47;;;9.55;82.59
38466;BME280;24244;51.950;5.902;2023-03-26T00:54:57;100571.66;;;9.55;82.40
38466;BME280;24244;51.950;5.902;2023-03-26T00:57:24;100571.47;;;9.56;82.49
38466;BME280;24244;51.950;5.902;2023-03-26T01:00:04;100563.50;;;9.56;82.57
38466;BME280;24244;51.950;5.902;2023-03-26T01:02:44;100568.81;;;9.56;82.63
38466;BME280;24244;51.950;5.902;2023-03-26T01:08:27;100556.38;;;9.57;82.69
38466;BME280;24244;51.950;5.902;2023-03-26T01:10:57;100554.53;;;9.57;82.25
38466;BME280;24244;51.950;5.902;2023-03-26T01:13:37;100552.06;;;9.56;82.81
38466;BME280;24244;51.950;5.902;2023-03-26T01:16:08;100556.56;;;9.55;82.56
38466;BME280;24244;51.950;5.902;2023-03-26T01:18:54;100545.75;;;9.57;82.75
38466;BME280;24244;51.950;5.902;2023-03-26T01:21:27;100541.47;;;9.56;82.65
38466;BME280;24244;51.950;5.902;2023-03-26T01:24:04;100541.28;;;9.57;82.73
38466;BME280;24244;51.950;5.902;2023-03-26T01:29:30;100531.66;;;9.56;82.83
38466;BME280;24244;51.950;5.902;2023-03-26T01:32:03;100525.38;;;9.57;82.61
38466;BME280;24244;51.950;5.902;2023-03-26T01:34:40;100530.66;;;9.57;82.71
38466;BME280;24244;51.950;5.902;2023-03-26T01:37:16;100525.19;;;9.59;82.67
38466;BME280;24244;51.950;5.902;2023-03-26T01:39:54;100525.97;;;9.59;82.54
38466;BME280;24244;51.950;5.902;2023-03-26T01:42:28;100509.06;;;9.60;82.69
38466;BME280;24244;51.950;5.902;2023-03-26T01:45:06;100512.34;;;9.62;82.73
38466;BME280;24244;51.950;5.902;2023-03-26T01:47:37;100511.34;;;9.63;82.77
38466;BME280;24244;51.950;5.902;2023-03-26T01:50:07;100513.00;;;9.64;82.66
38466;BME280;24244;51.950;5.902;2023-03-26T01:52:35;100507.69;;;9.64;82.68
38466;BME280;24244;51.950;5.902;2023-03-26T01:55:09;100503.19;;;9.65;82.74
38466;BME280;24244;51.950;5.902;2023-03-26T01:57:51;100509.13;;;9.67;82.59
38466;BME280;24244;51.950;5.902;2023-03-26T02:00:32;100506.28;;;9.68;82.81
38466;BME280;24244;51.950;5.902;2023-03-26T02:03:16;100503.63;;;9.68;82.98
38466;BME280;24244;51.950;5.902;2023-03-26T02:05:51;100492.84;;;9.70;82.92
38466;BME280;24244;51.950;5.902;2023-03-26T02:08:23;100488.34;;;9.70;82.55
38466;BME280;24244;51.950;5.902;2023-03-26T02:11:06;100477.75;;;9.70;83.01
38466;BME280;24244;51.950;5.902;2023-03-26T02:13:40;100470.78;;;9.69;82.55
38466;BME280;24244;51.950;5.902;2023-03-26T02:16:10;100471.78;;;9.68;82.75
38466;BME280;24244;51.950;5.902;2023-03-26T02:18:39;100472.63;;;9.69;82.87
38466;BME280;24244;51.950;5.902;2023-03-26T02:21:09;100476.91;;;9.70;82.91
38466;BME280;24244;51.950;5.902;2023-03-26T02:23:47;100471.78;;;9.68;82.88
38466;BME280;24244;51.950;5.902;2023-03-26T02:26:20;100467.31;;;9.69;82.72
38466;BME280;24244;51.950;5.902;2023-03-26T02:28:49;100466.31;;;9.70;83.11
38466;BME280;24244;51.950;5.902;2023-03-26T02:31:19;100464.47;;;9.70;82.99
38466;BME280;24244;51.950;5.902;2023-03-26T02:33:47;100453.84;;;9.70;82.70
38466;BME280;24244;51.950;5.902;2023-03-26T02:36:15;100452.84;;;9.71;83.03
38466;BME280;24244;51.950;5.902;2023-03-26T02:38:48;100450.19;;;9.71;82.78
38466;BME280;24244;51.950;5.902;2023-03-26T02:41:15;100445.72;;;9.72;82.77
38466;BME280;24244;51.950;5.902;2023-03-26T02:43:52;100445.72;;;9.72;83.20
38466;BME280;24244;51.950;5.902;2023-03-26T02:46:27;100445.72;;;9.72;83.02
38466;BME280;24244;51.950;5.902;2023-03-26T02:48:54;100443.88;;;9.72;83.08
38466;BME280;24244;51.950;5.902;2023-03-26T02:51:22;100442.22;;;9.71;83.18
38466;BME280;24244;51.950;5.902;2023-03-26T02:53:51;100437.94;;;9.70;83.08
38466;BME280;24244;51.950;5.902;2023-03-26T02:56:19;100438.94;;;9.69;83.27
38466;BME280;24244;51.950;5.902;2023-03-26T02:58:47;100438.94;;;9.69;83.33
38466;BME280;24244;51.950;5.902;2023-03-26T03:01:14;100436.28;;;9.69;83.30
38466;BME280;24244;51.950;5.902;2023-03-26T03:03:45;100435.47;;;9.69;83.37
38466;BME280;24244;51.950;5.902;2023-03-26T03:06:16;100436.28;;;9.69;83.36
38466;BME280;24244;51.950;5.902;2023-03-26T03:08:45;100436.28;;;9.69;83.43
38466;BME280;24244;51.950;5.902;2023-03-26T03:11:14;100435.47;;;9.69;83.32
38466;BME280;24244;51.950;5.902;2023-03-26T03:13:41;100423.84;;;9.70;83.25
38466;BME280;24244;51.950;5.902;2023-03-26T03:16:10;100432.63;;;9.70;83.27
38466;BME280;24244;51.950;5.902;2023-03-26T03:18:38;100423.00;;;9.69;83.41
38466;BME280;24244;51.950;5.902;2023-03-26T03:21:08;100417.53;;;9.71;83.55
38466;BME280;24244;51.950;5.902;2023-03-26T03:23:37;100419.19;;;9.72;83.19
38466;BME280;24244;51.950;5.902;2023-03-26T03:26:04;100411.81;;;9.74;83.08
38466;BME280;24244;51.950;5.902;2023-03-26T03:28:34;100409.81;;;9.76;83.18
38466;BME280;24244;51.950;5.902;2023-03-26T03:31:03;100401.84;;;9.76;83.36
38466;BME280;24244;51.950;5.902;2023-03-26T03:33:33;100397.19;;;9.78;83.31
38466;BME280;24244;51.950;5.902;2023-03-26T03:36:01;100398.00;;;9.78;83.08
38466;BME280;24244;51.950;5.902;2023-03-26T03:38:48;100393.53;;;9.79;83.30
38466;BME280;24244;51.950;5.902;2023-03-26T03:41:19;100393.53;;;9.79;83.31
38466;BME280;24244;51.950;5.902;2023-03-26T03:43:48;100398.81;;;9.79;83.05
38466;BME280;24244;51.950;5.902;2023-03-26T03:46:15;100399.66;;;9.79;83.25
38466;BME280;24244;51.950;5.902;2023-03-26T03:48:43;100400.25;;;9.81;83.18
38466;BME280;24244;51.950;5.902;2023-03-26T03:51:16;100396.78;;;9.81;82.93
38466;BME280;24244;51.950;5.902;2023-03-26T03:53:44;100392.28;;;9.81;83.15
38466;BME280;24244;51.950;5.902;2023-03-26T03:56:20;100393.13;;;9.82;82.88
38466;BME280;24244;51.950;5.902;2023-03-26T03:59:16;100390.47;;;9.82;82.76
38466;BME280;24244;51.950;5.902;2023-03-26T04:01:46;100385.97;;;9.82;82.97
38466;BME280;24244;51.950;5.902;2023-03-26T04:04:35;100387.44;;;9.85;83.22
38466;BME280;24244;51.950;5.902;2023-03-26T04:07:05;100375.19;;;9.84;82.85
38466;BME280;24244;51.950;5.902;2023-03-26T04:09:36;100371.69;;;9.83;83.13
38466;BME280;24244;51.950;5.902;2023-03-26T04:12:39;100365.75;;;9.81;82.85
38466;BME280;24244;51.950;5.902;2023-03-26T04:15:24;100367.59;;;9.81;83.02
38466;BME280;24244;51.950;5.902;2023-03-26T04:18:06;100360.44;;;9.81;82.64
38466;BME280;24244;51.950;5.902;2023-03-26T04:20:41;100361.09;;;9.83;82.73
38466;BME280;24244;51.950;5.902;2023-03-26T04:23:13;100360.91;;;9.85;82.52
38466;BME280;24244;51.950;5.902;2023-03-26T04:25:43;100355.41;;;9.87;82.64
38466;BME280;24244;51.950;5.902;2023-03-26T04:28:29;100340.50;;;9.86;82.73
38466;BME280;24244;51.950;5.902;2023-03-26T04:31:25;100348.28;;;9.87;82.69
38466;BME280;24244;51.950;5.902;2023-03-26T04:34:03;100345.78;;;9.86;82.58
38466;BME280;24244;51.950;5.902;2023-03-26T04:36:34;100346.41;;;9.88;82.54
38466;BME280;24244;51.950;5.902;2023-03-26T04:39:14;100338.44;;;9.88;82.58
38466;BME280;24244;51.950;5.902;2023-03-26T04:42:15;100342.97;;;9.87;82.61
38466;BME280;24244;51.950;5.902;2023-03-26T04:45:09;100332.13;;;9.89;82.82
38466;BME280;24244;51.950;5.902;2023-03-26T04:47:42;100329.47;;;9.89;82.45
38466;BME280;24244;51.950;5.902;2023-03-26T04:50:19;100326.81;;;9.89;82.53
38466;BME280;24244;51.950;5.902;2023-03-26T04:52:59;100326.00;;;9.88;82.49
38466;BME280;24244;51.950;5.902;2023-03-26T04:55:44;100324.16;;;9.89;82.74
38466;BME280;24244;51.950;5.902;2023-03-26T04:58:20;100315.59;;;9.87;82.72
38466;BME280;24244;51.950;5.902;2023-03-26T05:01:21;100300.66;;;9.86;82.57
38466;BME280;24244;51.950;5.902;2023-03-26T05:03:51;100311.91;;;9.88;82.73
38466;BME280;24244;51.950;5.902;2023-03-26T05:06:33;100300.47;;;9.87;82.46
38466;BME280;24244;51.950;5.902;2023-03-26T05:09:06;100301.91;;;9.90;82.67
38466;BME280;24244;51.950;5.902;2023-03-26T05:11:36;100294.78;;;9.90;82.85
38466;BME280;24244;51.950;5.902;2023-03-26T05:14:07;100300.25;;;9.89;82.78
38466;BME280;24244;51.950;5.902;2023-03-26T05:16:36;100299.06;;;9.91;82.80
38466;BME280;24244;51.950;5.902;2023-03-26T05:19:06;100289.47;;;9.90;82.51
38466;BME280;24244;51.950;5.902;2023-03-26T05:21:35;100290.28;;;9.91;82.80
38466;BME280;24244;51.950;5.902;2023-03-26T05:24:06;100282.31;;;9.91;82.91
38466;BME280;24244;51.950;5.902;2023-03-26T05:26:39;100279.66;;;9.91;82.57
38466;BME280;24244;51.950;5.902;2023-03-26T05:29:07;100275.38;;;9.90;82.81
38466;BME280;24244;51.950;5.902;2023-03-26T05:31:37;100272.72;;;9.90;82.82
38466;BME280;24244;51.950;5.902;2023-03-26T05:34:11;100265.56;;;9.90;82.57
38466;BME280;24244;51.950;5.902;2023-03-26T05:36:42;100266.56;;;9.89;82.67
38466;BME280;24244;51.950;5.902;2023-03-26T05:39:11;100259.44;;;9.90;82.74
38466;BME280;24244;51.950;5.902;2023-03-26T05:41:39;100263.75;;;9.91;83.00
38466;BME280;24244;51.950;5.902;2023-03-26T05:44:06;100257.59;;;9.90;82.81
38466;BME280;24244;51.950;5.902;2023-03-26T05:46:34;100247.81;;;9.91;82.96
38466;BME280;24244;51.950;5.902;2023-03-26T05:49:01;100249.63;;;9.90;82.67
38466;BME280;24244;51.950;5.902;2023-03-26T05:51:28;100247.16;;;9.89;82.57
38466;BME280;24244;51.950;5.902;2023-03-26T05:53:54;100240.63;;;9.85;82.77
38466;BME280;24244;51.950;5.902;2023-03-26T05:56:23;100232.84;;;9.83;82.86
38466;BME280;24244;51.950;5.902;2023-03-26T05:58:49;100233.88;;;9.82;83.07
38466;BME280;24244;51.950;5.902;2023-03-26T06:01:17;100233.03;;;9.81;82.84
38466;BME280;24244;51.950;5.902;2023-03-26T06:03:45;100225.06;;;9.81;82.93
38466;BME280;24244;51.950;5.902;2023-03-26T06:06:14;100222.81;;;9.78;83.13
38466;BME280;24244;51.950;5.902;2023-03-26T06:08:41;100217.25;;;9.73;83.00
38466;BME280;24244;51.950;5.902;2023-03-26T06:11:09;100221.97;;;9.71;83.19
38466;BME280;24244;51.950;5.902;2023-03-26T06:13:41;100218.66;;;9.69;82.94
38466;BME280;24244;51.950;5.902;2023-03-26T06:16:09;100212.13;;;9.65;83.01
38466;BME280;24244;51.950;5.902;2023-03-26T06:18:52;100198.84;;;9.65;83.35
38466;BME280;24244;51.950;5.902;2023-03-26T06:21:22;100200.69;;;9.65;83.10
38466;BME280;24244;51.950;5.902;2023-03-26T06:23:49;100195.75;;;9.62;83.47
38466;BME280;24244;51.950;5.902;2023-03-26T06:26:17;100191.09;;;9.64;83.43
38466;BME280;24244;51.950;5.902;2023-03-26T06:28:47;100182.94;;;9.65;83.41
38466;BME280;24244;51.950;5.902;2023-03-26T06:31:18;100181.91;;;9.66;83.26
38466;BME280;24244;51.950;5.902;2023-03-26T06:33:45;100185.59;;;9.65;82.91
38466;BME280;24244;51.950;5.902;2023-03-26T06:36:14;100187.19;;;9.66;83.28
38466;BME280;24244;51.950;5.902;2023-03-26T06:38:41;100187.84;;;9.68;83.34
38466;BME280;24244;51.950;5.902;2023-03-26T06:41:08;100192.13;;;9.69;83.06
38466;BME280;24244;51.950;5.902;2023-03-26T06:43:35;100188.47;;;9.70;82.96
38466;BME280;24244;51.950;5.902;2023-03-26T06:46:05;100190.31;;;9.70;83.00
38466;BME280;24244;51.950;5.902;2023-03-26T06:48:34;100193.78;;;9.70;83.05
38466;BME280;24244;51.950;5.902;2023-03-26T06:51:00;100192.13;;;9.69;83.12
38466;BME280;24244;51.950;5.902;2023-03-26T06:53:27;100188.66;;;9.69;83.38
38466;BME280;24244;51.950;5.902;2023-03-26T06:55:54;100185.19;;;9.68;83.15
38466;BME280;24244;51.950;5.902;2023-03-26T06:58:21;100187.00;;;9.68;83.19
38466;BME280;24244;51.950;5.902;2023-03-26T07:00:52;100185.19;;;9.68;83.21
38466;BME280;24244;51.950;5.902;2023-03-26T07:03:21;100190.50;;;9.68;83.17
38466;BME280;24244;51.950;5.902;2023-03-26T07:05:50;100195.81;;;9.68;83.08
38466;BME280;24244;51.950;5.902;2023-03-26T07:08:17;100187.84;;;9.68;83.20
38466;BME280;24244;51.950;5.902;2023-03-26T07:10:44;100189.66;;;9.68;83.49
38466;BME280;24244;51.950;5.902;2023-03-26T07:13:12;100192.13;;;9.69;83.25
38466;BME280;24244;51.950;5.902;2023-03-26T07:15:40;100179.69;;;9.70;82.93
38466;BME280;24244;51.950;5.902;2023-03-26T07:18:07;100188.47;;;9.70;83.04
38466;BME280;24244;51.950;5.902;2023-03-26T07:20:36;100183.16;;;9.70;83.37
38466;BME280;24244;51.950;5.902;2023-03-26T07:23:03;100184.63;;;9.73;83.07
38466;BME280;24244;51.950;5.902;2023-03-26T07:25:31;100186.03;;;9.75;82.97
38466;BME280;24244;51.950;5.902;2023-03-26T07:28:06;100180.53;;;9.77;83.13
38466;BME280;24244;51.950;5.902;2023-03-26T07:30:44;100178.91;;;9.76;83.02
38466;BME280;24244;51.950;5.902;2023-03-26T07:33:18;100176.25;;;9.76;83.03
38466;BME280;24244;51.950;5.902;2023-03-26T07:35:52;100174.22;;;9.78;83.27
38466;BME280;24244;51.950;5.902;2023-03-26T07:38:38;100175.06;;;9.78;83.39
38466;BME280;24244;51.950;5.902;2023-03-26T07:41:12;100175.88;;;9.79;83.14
38466;BME280;24244;51.950;5.902;2023-03-26T07:43:54;100175.06;;;9.78;83.44
38466;BME280;24244;51.950;5.902;2023-03-26T07:46:27;100159.94;;;9.79;83.06
38466;BME280;24244;51.950;5.902;2023-03-26T07:48:55;100169.34;;;9.81;83.60
38466;BME280;24244;51.950;5.902;2023-03-26T07:51:26;100166.50;;;9.83;83.36
38466;BME280;24244;51.950;5.902;2023-03-26T07:53:54;100161.81;;;9.85;83.47
38466;BME280;24244;51.950;5.902;2023-03-26T07:56:25;100155.09;;;9.89;83.56
38466;BME280;24244;51.950;5.902;2023-03-26T07:59:04;100154.91;;;9.91;83.21
38466;BME280;24244;51.950;5.902;2023-03-26T08:01:45;100155.91;;;9.90;83.16
38466;BME280;24244;51.950;5.902;2023-03-26T08:04:35;100151.59;;;9.89;83.38
38466;BME280;24244;51.950;5.902;2023-03-26T08:07:10;100152.25;;;9.91;83.46
38466;BME280;24244;51.950;5.902;2023-03-26T08:09:48;100148.56;;;9.92;83.40
38466;BME280;24244;51.950;5.902;2023-03-26T08:12:26;100151.22;;;9.92;83.51
38466;BME280;24244;51.950;5.902;2023-03-26T08:14:59;100146.56;;;9.94;83.47
38466;BME280;24244;51.950;5.902;2023-03-26T08:17:34;100147.16;;;9.96;83.43
38466;BME280;24244;51.950;5.902;2023-03-26T08:20:13;100145.31;;;9.96;83.38
38466;BME280;24244;51.950;5.902;2023-03-26T08:22:50;100142.66;;;9.96;83.50
38466;BME280;24244;51.950;5.902;2023-03-26T08:25:26;100135.53;;;9.97;83.81
38466;BME280;24244;51.950;5.902;2023-03-26T08:28:11;100147.78;;;9.98;83.52
38466;BME280;24244;51.950;5.902;2023-03-26T08:30:49;100144.13;;;9.99;83.86
38466;BME280;24244;51.950;5.902;2023-03-26T08:33:18;100145.94;;;9.98;83.61
38466;BME280;24244;51.950;5.902;2023-03-26T08:35:46;100149.22;;;10.00;83.38
38466;BME280;24244;51.950;5.902;2023-03-26T08:38:16;100146.78;;;9.99;83.55
38466;BME280;24244;51.950;5.902;2023-03-26T08:41:14;100155.56;;;9.99;83.77
38466;BME280;24244;51.950;5.902;2023-03-26T08:44:09;100144.13;;;9.99;83.92
38466;BME280;24244;51.950;5.902;2023-03-26T08:47:07;100144.13;;;9.99;83.81
38466;BME280;24244;51.950;5.902;2023-03-26T08:50:13;100145.31;;;9.96;83.81
38466;BME280;24244;51.950;5.902;2023-03-26T08:56:00;100142.84;;;9.95;83.67
38466;BME280;24244;51.950;5.902;2023-03-26T09:04:50;100148.97;;;9.95;83.88
38466;BME280;24244;51.950;5.902;2023-03-26T09:07:39;100151.63;;;9.95;84.17
38466;BME280;24244;51.950;5.902;2023-03-26T09:10:31;100148.59;;;9.98;84.11
38466;BME280;24244;51.950;5.902;2023-03-26T09:13:18;100150.06;;;10.01;83.80
38466;BME280;24244;51.950;5.902;2023-03-26T09:19:42;100145.34;;;10.03;84.12
38466;BME280;24244;51.950;5.902;2023-03-26T09:22:47;100138.66;;;10.07;84.12
38466;BME280;24244;51.950;5.902;2023-03-26T09:25:43;100136.81;;;10.07;83.84
38466;BME280;24244;51.950;5.902;2023-03-26T09:31:57;100142.13;;;10.07;84.04
38466;BME280;24244;51.950;5.902;2023-03-26T09:34:30;100141.09;;;10.08;83.97
38466;BME280;24244;51.950;5.902;2023-03-26T09:37:12;100140.28;;;10.08;83.91
38466;BME280;24244;51.950;5.902;2023-03-26T09:39:51;100140.47;;;10.06;83.83
38466;BME280;24244;51.950;5.902;2023-03-26T09:42:25;100134.97;;;10.08;84.08
38466;BME280;24244;51.950;5.902;2023-03-26T09:48:40;100137.03;;;10.12;84.18
38466;BME280;24244;51.950;5.902;2023-03-26T09:51:29;100136.84;;;10.14;84.35
38466;BME280;24244;51.950;5.902;2023-03-26T09:54:13;100138.25;;;10.16;84.10
38466;BME280;24244;51.950;5.902;2023-03-26T09:56:52;100136.44;;;10.17;84.12
38466;BME280;24244;51.950;5.902;2023-03-26T09:59:50;100144.03;;;10.20;84.51
38466;BME280;24244;51.950;5.902;2023-03-26T10:02:41;100143.03;;;10.21;84.15
38466;BME280;24244;51.950;5.902;2023-03-26T10:05:42;100145.25;;;10.24;84.46
38466;BME280;24244;51.950;5.902;2023-03-26T10:08:34;100137.53;;;10.29;84.18
38466;BME280;24244;51.950;5.902;2023-03-26T10:11:11;100145.09;;;10.32;84.12
38466;BME280;24244;51.950;5.902;2023-03-26T10:13:50;100144.69;;;10.35;84.50
38466;BME280;24244;51.950;5.902;2023-03-26T10:16:25;100141.03;;;10.36;84.17
38466;BME280;24244;51.950;5.902;2023-03-26T10:19:22;100145.94;;;10.39;84.42
38466;BME280;24244;51.950;5.902;2023-03-26T10:22:02;100139.22;;;10.43;84.28
38466;BME280;24244;51.950;5.902;2023-03-26T10:24:52;100143.50;;;10.44;83.91
38466;BME280;24244;51.950;5.902;2023-03-26T10:27:35;100140.63;;;10.46;84.62
38466;BME280;24244;51.950;5.902;2023-03-26T10:30:37;100141.69;;;10.51;84.33
38466;BME280;24244;51.950;5.902;2023-03-26T10:33:13;100145.13;;;10.52;84.61
38466;BME280;24244;51.950;5.902;2023-03-26T10:35:52;100151.91;;;10.54;84.33
38466;BME280;24244;51.950;5.902;2023-03-26T10:38:35;100136.97;;;10.53;84.77
38466;BME280;24244;51.950;5.902;2023-03-26T10:41:13;100143.31;;;10.59;84.71
38466;BME280;24244;51.950;5.902;2023-03-26T10:43:56;100142.53;;;10.65;84.60
38466;BME280;24244;51.950;5.902;2023-03-26T10:46:51;100139.25;;;10.70;84.48
38466;BME280;24244;51.950;5.902;2023-03-26T10:49:45;100141.09;;;10.76;84.47
38466;BME280;24244;51.950;5.902;2023-03-26T10:52:17;100143.56;;;10.77;84.29
38466;BME280;24244;51.950;5.902;2023-03-26T10:54:54;100136.81;;;10.81;84.73
38466;BME280;24244;51.950;5.902;2023-03-26T10:57:27;100146.63;;;10.87;84.54
38466;BME280;24244;51.950;5.902;2023-03-26T10:59:57;100147.06;;;10.91;84.64
38466;BME280;24244;51.950;5.902;2023-03-26T11:02:28;100152.56;;;10.96;84.50
38466;BME280;24244;51.950;5.902;2023-03-26T11:05:19;100149.09;;;10.95;84.53
38466;BME280;24244;51.950;5.902;2023-03-26T11:07:55;100159.34;;;10.98;84.40
38466;BME280;24244;51.950;5.902;2023-03-26T11:10:34;100159.53;;;10.97;84.35
38466;BME280;24244;51.950;5.902;2023-03-26T11:13:13;100159.72;;;10.89;84.62
38466;BME280;24244;51.950;5.902;2023-03-26T11:15:47;100156.66;;;10.79;84.50
38466;BME280;24244;51.950;5.902;2023-03-26T11:18:21;100154.59;;;10.74;84.66
38466;BME280;24244;51.950;5.902;2023-03-26T11:20:52;100161.75;;;10.74;84.61
38466;BME280;24244;51.950;5.902;2023-03-26T11:23:48;100160.94;;;10.73;84.75
38466;BME280;24244;51.950;5.902;2023-03-26T11:26:43;100165.63;;;10.65;84.67
38466;BME280;24244;51.950;5.902;2023-03-26T11:29:28;100162.75;;;10.59;84.94
38466;BME280;24244;51.950;5.902;2023-03-26T11:32:04;100171.75;;;10.58;84.72
38466;BME280;24244;51.950;5.902;2023-03-26T11:34:37;100182.34;;;10.52;85.05
38466;BME280;24244;51.950;5.902;2023-03-26T11:37:14;100169.47;;;10.49;85.11
38466;BME280;24244;51.950;5.902;2023-03-26T11:39:46;100177.00;;;10.45;85.22
38466;BME280;24244;51.950;5.902;2023-03-26T11:42:17;100186.41;;;10.41;85.42
38466;BME280;24244;51.950;5.902;2023-03-26T11:44:48;100179.44;;;10.34;85.03
38466;BME280;24244;51.950;5.902;2023-03-26T11:47:20;100189.03;;;10.28;85.38
38466;BME280;24244;51.950;5.902;2023-03-26T11:49:51;100188.00;;;10.29;85.48
38466;BME280;24244;51.950;5.902;2023-03-26T11:52:19;100186.38;;;10.28;85.63
38466;BME280;24244;51.950;5.902;2023-03-26T11:54:47;100188.81;;;10.30;85.39
38466;BME280;24244;51.950;5.902;2023-03-26T11:57:20;100192.91;;;10.32;85.66
38466;BME280;24244;51.950;5.902;2023-03-26T11:59:51;100192.91;;;10.32;85.41
38466;BME280;24244;51.950;5.902;2023-03-26T12:02:26;100190.06;;;10.34;85.41
38466;BME280;24244;51.950;5.902;2023-03-26T12:05:15;100189.88;;;10.35;85.37
38466;BME280;24244;51.950;5.902;2023-03-26T12:07:46;100191.50;;;10.36;85.58
38466;BME280;24244;51.950;5.902;2023-03-26T12:10:23;100191.50;;;10.36;85.40
38466;BME280;24244;51.950;5.902;2023-03-26T12:12:55;100189.22;;;10.33;85.73
38466;BME280;24244;51.950;5.902;2023-03-26T12:15:23;100190.06;;;10.34;85.22
38466;BME280;24244;51.950;5.902;2023-03-26T12:17:53;100194.34;;;10.28;85.72
38466;BME280;24244;51.950;5.902;2023-03-26T12:20:34;100195.34;;;10.27;85.67
38466;BME280;24244;51.950;5.902;2023-03-26T12:23:03;100199.41;;;10.23;85.52
38466;BME280;24244;51.950;5.902;2023-03-26T12:25:34;100206.69;;;10.14;85.39
38466;BME280;24244;51.950;5.902;2023-03-26T12:28:08;100201.13;;;10.09;85.77
38466;BME280;24244;51.950;5.902;2023-03-26T12:30:51;100209.94;;;10.10;85.74
38466;BME280;24244;51.950;5.902;2023-03-26T12:33:24;100210.72;;;10.04;85.62
38466;BME280;24244;51.950;5.902;2023-03-26T12:35:52;100216.81;;;9.98;85.26
38466;BME280;24244;51.950;5.902;2023-03-26T12:38:28;100216.28;;;9.81;85.36
38466;BME280;24244;51.950;5.902;2023-03-26T12:41:04;100219.75;;;9.81;85.48
38466;BME280;24244;51.950;5.902;2023-03-26T12:43:38;100221.41;;;9.82;85.47
38466;BME280;24244;51.950;5.902;2023-03-26T12:46:27;100217.53;;;9.78;85.53
38466;BME280;24244;51.950;5.902;2023-03-26T12:49:18;100227.31;;;9.78;85.46
38466;BME280;24244;51.950;5.902;2023-03-26T12:51:48;100226.09;;;9.80;85.34
38466;BME280;24244;51.950;5.902;2023-03-26T12:54:30;100225.47;;;9.78;85.58
38466;BME280;24244;51.950;5.902;2023-03-26T12:57:15;100230.75;;;9.72;85.47
38466;BME280;24244;51.950;5.902;2023-03-26T12:59:58;100227.09;;;9.73;85.40
38466;BME280;24244;51.950;5.902;2023-03-26T13:03:05;100228.91;;;9.72;85.35
38466;BME280;24244;51.950;5.902;2023-03-26T13:05:46;100231.72;;;9.64;85.06
38466;BME280;24244;51.950;5.902;2023-03-26T13:08:28;100236.19;;;9.64;85.36
38466;BME280;24244;51.950;5.902;2023-03-26T13:10:59;100243.34;;;9.63;85.40
38466;BME280;24244;51.950;5.902;2023-03-26T13:16:39;100247.75;;;9.56;84.85
38466;BME280;24244;51.950;5.902;2023-03-26T13:19:14;100253.25;;;9.55;85.11
38466;BME280;24244;51.950;5.902;2023-03-26T13:21:53;100248.34;;;9.52;84.89
38466;BME280;24244;51.950;5.902;2023-03-26T13:24:33;100259.97;;;9.51;85.16
38466;BME280;24244;51.950;5.902;2023-03-26T13:27:15;100259.53;;;9.47;85.01
38466;BME280;24244;51.950;5.902;2023-03-26T13:29:52;100249.91;;;9.46;84.75
38466;BME280;24244;51.950;5.902;2023-03-26T13:32:31;100259.53;;;9.47;84.84
38466;BME280;24244;51.950;5.902;2023-03-26T13:35:12;100263.19;;;9.46;84.80
38466;BME280;24244;51.950;5.902;2023-03-26T13:37:44;100255.22;;;9.46;84.65
38466;BME280;24244;51.950;5.902;2023-03-26T13:40:21;100269.50;;;9.45;84.73
38466;BME280;24244;51.950;5.902;2023-03-26T13:43:04;100269.06;;;9.41;84.60
38466;BME280;24244;51.950;5.902;2023-03-26T13:45:46;100263.94;;;9.40;84.71
38466;BME280;24244;51.950;5.902;2023-03-26T13:48:19;100269.25;;;9.40;84.52
38466;BME280;24244;51.950;5.902;2023-03-26T13:50:48;100271.72;;;9.41;84.94
38466;BME280;24244;51.950;5.902;2023-03-26T13:53:21;100270.53;;;9.44;84.43
38466;BME280;24244;51.950;5.902;2023-03-26T13:55:52;100269.50;;;9.45;84.39
38466;BME280;24244;51.950;5.902;2023-03-26T13:58:24;100272.34;;;9.43;84.23
38466;BME280;24244;51.950;5.902;2023-03-26T14:01:04;100271.13;;;9.46;84.29
38466;BME280;24244;51.950;5.902;2023-03-26T14:03:42;100275.25;;;9.49;84.19
38466;BME280;24244;51.950;5.902;2023-03-26T14:06:26;100278.16;;;9.54;84.19
38466;BME280;24244;51.950;5.902;2023-03-26T14:08:57;100285.97;;;9.62;84.18
38466;BME280;24244;51.950;5.902;2023-03-26T14:11:37;100281.31;;;9.64;83.98